Time;durP1;ratioP1;P1;durP2;ratioP2;P2;SDS_P1;SDS_P2;PMS_P1;PMS_P2;Temp;Humidity;BMP_temperature;BMP_pressure;BME280_temperature;BME280_humidity;BME280_pressure;Samples;Min_cycle;Max_cycle;Signal;HPM_P1;HPM_P2
2022/09/06 00:02:43;;;;;;;10.10;3.30;;;;;;;-147.53;100.00;57128.34;10251465;28;20047;-87
2022/09/06 00:07:45;;;;;;;7.05;3.45;;;;;;;-147.53;100.00;57128.34;10255892;28;20067;-87
2022/09/06 00:12:46;;;;;;;7.45;3.88;;;;;;;-147.53;100.00;57128.34;10240754;28;20509;-87
2022/09/06 00:17:50;;;;;;;7.97;3.65;;;;;;;-147.53;100.00;57128.34;10235039;28;20066;-87
2022/09/06 00:22:56;;;;;;;7.13;3.72;;;;;;;-147.53;100.00;57128.34;10221443;28;20047;-87
2022/09/06 00:28:01;;;;;;;7.10;3.72;;;;;;;-147.53;100.00;57128.34;10240130;28;20046;-87
2022/09/06 00:33:03;;;;;;;8.48;3.85;;;;;;;-147.53;100.00;57128.34;10242256;28;20725;-87
2022/09/06 00:38:04;;;;;;;6.95;3.60;;;;;;;-147.53;100.00;57128.34;10242292;28;20055;-87
2022/09/06 00:43:06;;;;;;;6.47;3.83;;;;;;;-147.53;100.00;57128.34;10241991;28;20042;-86
2022/09/06 00:48:08;;;;;;;7.50;3.90;;;;;;;-147.53;100.00;57128.34;10233979;28;20047;-87
2022/09/06 00:53:10;;;;;;;10.05;4.05;;;;;;;-147.53;100.00;57128.34;10251907;28;20103;-87
2022/09/06 00:58:12;;;;;;;7.40;3.92;;;;;;;-147.53;100.00;57128.34;10230879;28;20046;-87
2022/09/06 01:03:13;;;;;;;8.60;4.20;;;;;;;-147.53;100.00;57128.34;10244350;28;20127;-87
2022/09/06 01:08:38;;;;;;;6.57;3.75;;;;;;;-147.53;100.00;57128.34;10255073;28;20051;-87
2022/09/06 01:14:12;;;;;;;7.25;4.47;;;;;;;-147.53;100.00;57128.34;10253497;28;20050;-86
2022/09/06 01:19:26;;;;;;;7.85;4.80;;;;;;;-147.53;100.00;57128.34;10235631;28;20043;-87
2022/09/06 01:24:33;;;;;;;6.57;3.90;;;;;;;-147.53;100.00;57128.34;10244118;28;20052;-88
2022/09/06 01:29:50;;;;;;;9.23;4.40;;;;;;;-147.53;100.00;57128.34;10243385;28;20047;-87
2022/09/06 01:35:17;;;;;;;10.63;5.10;;;;;;;-147.53;100.00;57128.34;10238453;28;20118;-86
2022/09/06 01:40:19;;;;;;;11.82;4.80;;;;;;;-147.53;100.00;57128.34;10232922;28;20051;-87
2022/09/06 01:45:37;;;;;;;8.30;4.70;;;;;;;-147.53;100.00;57128.34;10258822;28;20050;-88
2022/09/06 01:51:03;;;;;;;7.32;4.35;;;;;;;-147.53;100.00;57128.34;10229119;28;20039;-87
2022/09/06 01:56:23;;;;;;;9.52;4.32;;;;;;;-147.53;100.00;57128.34;10245835;28;20039;-87
2022/09/06 02:01:43;;;;;;;13.20;4.85;;;;;;;-147.53;100.00;57128.34;10242337;28;20228;-87
2022/09/06 02:06:51;;;;;;;10.45;4.53;;;;;;;-147.53;100.00;57128.34;10230521;28;20039;-87
2022/09/06 02:11:57;;;;;;;10.65;4.75;;;;;;;-147.53;100.00;57128.34;10249958;28;20513;-87
2022/09/06 02:17:01;;;;;;;11.05;4.95;;;;;;;-147.53;100.00;57128.34;10248022;28;20052;-88
2022/09/06 02:22:08;;;;;;;8.32;4.40;;;;;;;-147.53;100.00;57128.34;10248049;28;20093;-88
2022/09/06 02:27:11;;;;;;;10.18;4.95;;;;;;;-147.53;100.00;57128.34;10243184;28;20048;-87
2022/09/06 02:32:21;;;;;;;8.07;4.30;;;;;;;-147.53;100.00;57128.34;10231619;28;20044;-87
2022/09/06 02:37:24;;;;;;;11.05;4.47;;;;;;;-147.53;100.00;57128.34;10251708;28;20054;-87
2022/09/06 02:42:26;;;;;;;8.57;4.97;;;;;;;-147.53;100.00;57128.34;10241020;28;20047;-87
2022/09/06 02:47:28;;;;;;;8.68;5.00;;;;;;;-147.53;100.00;57128.34;10244233;28;20504;-86
2022/09/06 02:52:29;;;;;;;12.00;4.93;;;;;;;-147.53;100.00;57128.34;10249980;28;20043;-87
2022/09/06 02:57:31;;;;;;;7.70;4.75;;;;;;;-147.53;100.00;57128.34;10239549;28;20032;-87
2022/09/06 03:02:33;;;;;;;9.77;4.90;;;;;;;-147.53;100.00;57128.34;10233378;28;20134;-87
2022/09/06 03:07:34;;;;;;;7.28;4.72;;;;;;;-147.53;100.00;57128.34;10246354;28;20141;-88
2022/09/06 03:12:36;;;;;;;11.80;5.18;;;;;;;-147.53;100.00;57128.34;10221617;28;20031;-87
2022/09/06 03:17:38;;;;;;;9.48;4.90;;;;;;;-147.53;100.00;57128.34;10245229;28;20062;-87
2022/09/06 03:22:40;;;;;;;10.10;4.45;;;;;;;-147.53;100.00;57128.34;10233350;28;20389;-87
2022/09/06 03:27:42;;;;;;;7.57;4.70;;;;;;;-147.53;100.00;57128.34;10241501;28;20407;-87
2022/09/06 03:32:44;;;;;;;9.75;4.78;;;;;;;-147.53;100.00;57128.34;10244380;28;20038;-88
2022/09/06 03:37:48;;;;;;;9.73;4.75;;;;;;;-147.53;100.00;57128.34;10237552;28;20377;-90
2022/09/06 03:42:49;;;;;;;12.13;4.75;;;;;;;-147.53;100.00;57128.34;10226365;28;20055;-87
2022/09/06 03:47:51;;;;;;;9.00;4.57;;;;;;;-147.53;100.00;57128.34;10247751;28;20045;-88
2022/09/06 03:52:52;;;;;;;8.57;4.57;;;;;;;-147.53;100.00;57128.34;10243096;28;20050;-88
2022/09/06 03:57:54;;;;;;;9.65;5.10;;;;;;;-147.53;100.00;57128.34;10237395;28;20051;-87
2022/09/06 04:02:56;;;;;;;9.55;5.65;;;;;;;-147.53;100.00;57128.34;10217862;28;20493;-87
2022/09/06 04:08:02;;;;;;;8.02;4.70;;;;;;;-147.53;100.00;57128.34;10248939;28;20464;-88
2022/09/06 04:13:04;;;;;;;13.50;5.15;;;;;;;-147.53;100.00;57128.34;10236861;28;20070;-88
2022/09/06 04:18:06;;;;;;;10.80;5.20;;;;;;;-147.53;100.00;57128.34;10203715;28;20042;-87
2022/09/06 04:23:09;;;;;;;7.80;4.35;;;;;;;-147.53;100.00;57128.34;10223312;28;20048;-87
2022/09/06 04:28:11;;;;;;;8.55;4.65;;;;;;;-147.53;100.00;57128.34;10219867;28;20042;-87
2022/09/06 04:33:13;;;;;;;9.07;4.50;;;;;;;-147.53;100.00;57128.34;10228330;28;20073;-88
2022/09/06 04:38:14;;;;;;;10.48;4.88;;;;;;;-147.53;100.00;57128.34;10250997;28;20202;-87
2022/09/06 04:43:16;;;;;;;6.32;4.10;;;;;;;-147.53;100.00;57128.34;10223366;28;20066;-87
2022/09/06 04:48:18;;;;;;;10.80;4.43;;;;;;;-147.53;100.00;57128.34;10227224;28;20047;-88
2022/09/06 04:53:20;;;;;;;8.77;4.63;;;;;;;-147.53;100.00;57128.34;10227895;28;20130;-87
2022/09/06 04:58:22;;;;;;;9.13;4.50;;;;;;;-147.53;100.00;57128.34;10243386;28;20042;-88
2022/09/06 05:03:23;;;;;;;11.02;4.60;;;;;;;-147.53;100.00;57128.34;10234944;28;20109;-88
2022/09/06 05:08:25;;;;;;;8.55;4.85;;;;;;;-147.53;100.00;57128.34;10239322;28;20071;-87
2022/09/06 05:13:26;;;;;;;7.38;4.07;;;;;;;-147.53;100.00;57128.34;10248507;28;20411;-88
2022/09/06 05:18:28;;;;;;;7.88;4.60;;;;;;;-147.53;100.00;57128.34;10238142;28;20147;-87
2022/09/06 05:23:30;;;;;;;7.50;4.30;;;;;;;-147.53;100.00;57128.34;10250140;28;20420;-88
2022/09/06 05:28:41;;;;;;;8.95;4.78;;;;;;;-147.53;100.00;57128.34;10226854;28;20031;-92
2022/09/06 05:34:40;;;;;;;17.05;6.13;;;;;;;-147.53;100.00;57128.34;10224997;28;20043;-92
2022/09/06 05:40:13;;;;;;;12.57;6.38;;;;;;;-147.53;100.00;57128.34;10235323;28;20527;-91
2022/09/06 05:45:31;;;;;;;12.57;6.28;;;;;;;-147.53;100.00;57128.34;10207758;28;20043;-91
2022/09/06 05:50:45;;;;;;;15.27;6.90;;;;;;;-147.53;100.00;57128.34;10270212;28;20050;-91
2022/09/06 05:55:50;;;;;;;18.70;7.00;;;;;;;-147.53;100.00;57128.34;10229880;28;20126;-90
2022/09/06 06:01:16;;;;;;;11.70;6.72;;;;;;;-147.53;100.00;57128.34;10212900;28;20085;-89
2022/09/06 06:06:21;;;;;;;12.15;6.38;;;;;;;-147.53;100.00;57128.34;10237680;28;20043;-89
2022/09/06 06:18:50;;;;;;;15.73;7.60;;;;;;;-147.53;100.00;57128.34;10102231;29;20395;-91
2022/09/06 06:24:38;;;;;;;14.03;8.40;;;;;;;-147.53;100.00;57128.34;10131134;29;20135;-91
2022/09/06 06:30:31;;;;;;;15.15;7.68;;;;;;;-147.53;100.00;57128.34;10102030;29;20056;-91
2022/09/06 06:36:14;;;;;;;13.10;7.43;;;;;;;-147.53;100.00;57128.34;9943294;29;20184;-90
2022/09/06 06:41:27;;;;;;;12.65;6.72;;;;;;;-147.53;100.00;57128.34;10334714;23;20055;-80
2022/09/06 06:46:31;;;;;;;14.45;7.20;;;;;;;-147.53;100.00;57128.34;10278277;28;20065;-79
2022/09/06 06:51:38;;;;;;;13.85;7.82;;;;;;;-147.53;100.00;57128.34;10229510;28;20043;-77
2022/09/06 06:56:39;;;;;;;16.92;8.07;;;;;;;-147.53;100.00;57128.34;10239450;28;20055;-78
2022/09/06 07:01:41;;;;;;;12.82;7.45;;;;;;;-147.53;100.00;57128.34;10252836;28;20417;-78
2022/09/06 07:06:48;;;;;;;14.75;7.82;;;;;;;-147.53;100.00;57128.34;10222685;28;20787;-78
2022/09/06 07:12:10;;;;;;;15.15;8.15;;;;;;;-147.53;100.00;57128.34;10205248;28;20047;-79
2022/09/06 07:17:12;;;;;;;12.43;7.63;;;;;;;-147.53;100.00;57128.34;10213161;28;20066;-80
2022/09/06 07:22:14;;;;;;;12.25;7.80;;;;;;;-147.53;100.00;57128.34;10236433;28;20586;-80
2022/09/06 07:27:16;;;;;;;11.55;7.78;;;;;;;-147.53;100.00;57128.34;10252791;28;20039;-81
2022/09/06 07:32:37;;;;;;;12.80;8.10;;;;;;;-147.53;100.00;57128.34;10241875;28;20408;-80
2022/09/06 07:37:39;;;;;;;13.80;7.90;;;;;;;-147.53;100.00;57128.34;10254916;28;20584;-80
2022/09/06 07:42:41;;;;;;;12.13;8.10;;;;;;;-147.53;100.00;57128.34;10253534;28;20086;-81
2022/09/06 07:47:43;;;;;;;15.05;8.50;;;;;;;-147.53;100.00;57128.34;10218255;28;20491;-82
2022/09/06 07:53:05;;;;;;;16.63;7.47;;;;;;;-147.53;100.00;57128.34;10258099;28;20106;-82
2022/09/06 07:58:13;;;;;;;13.50;7.45;;;;;;;-147.53;100.00;57128.34;10295754;28;20097;-82
2022/09/06 08:03:15;;;;;;;13.15;6.85;;;;;;;-147.53;100.00;57128.34;10292000;28;20062;-82
2022/09/06 08:08:16;;;;;;;10.63;5.93;;;;;;;-147.53;100.00;57128.34;10305325;28;20050;-82
2022/09/06 08:13:38;;;;;;;10.80;6.32;;;;;;;-147.53;100.00;57128.34;10304001;28;20121;-82
2022/09/06 08:18:40;;;;;;;11.85;6.38;;;;;;;-147.53;100.00;57128.34;10306424;28;20073;-82
2022/09/06 08:23:52;;;;;;;12.02;5.70;;;;;;;-147.53;100.00;57128.34;10303887;28;20038;-82
2022/09/06 08:29:01;;;;;;;11.35;5.47;;;;;;;-147.53;100.00;57128.34;10296397;28;20062;-82
2022/09/06 08:34:02;;;;;;;9.13;5.65;;;;;;;-147.53;100.00;57128.34;10315791;28;20031;-81
2022/09/06 08:39:08;;;;;;;12.65;5.85;;;;;;;-147.53;100.00;57128.34;10298409;28;20035;-81
2022/09/06 08:44:17;;;;;;;10.13;5.25;;;;;;;-147.53;100.00;57128.34;10299697;28;20473;-80
2022/09/06 08:49:45;;;;;;;9.52;5.15;;;;;;;-147.53;100.00;57128.34;10302194;28;20243;-80
2022/09/06 08:55:09;;;;;;;8.68;5.03;;;;;;;-147.53;100.00;57128.34;10306570;28;20039;-80
2022/09/06 09:00:12;;;;;;;10.60;5.13;;;;;;;-147.53;100.00;57128.34;10315423;28;20514;-80
2022/09/06 09:05:30;;;;;;;14.38;5.30;;;;;;;-147.53;100.00;57128.34;10263746;28;20061;-80
2022/09/06 09:10:45;;;;;;;9.57;5.22;;;;;;;-147.53;100.00;57128.34;10254314;28;20043;-79
2022/09/06 09:15:46;;;;;;;9.45;5.22;;;;;;;-147.53;100.00;57128.34;10271581;28;20452;-79
2022/09/06 09:20:48;;;;;;;13.90;4.45;;;;;;;-147.53;100.00;57128.34;10262576;28;20062;-79
2022/09/06 09:25:52;;;;;;;10.20;4.63;;;;;;;-147.53;100.00;57128.34;10269484;28;20040;-79
2022/09/06 09:30:55;;;;;;;8.75;4.68;;;;;;;-147.53;100.00;57128.34;10248470;28;20046;-79
2022/09/06 09:36:01;;;;;;;9.77;4.55;;;;;;;-147.53;100.00;57128.34;10270233;28;20038;-79
2022/09/06 09:41:06;;;;;;;9.88;4.90;;;;;;;-147.53;100.00;57128.34;10258589;28;20050;-78
2022/09/06 09:46:16;;;;;;;9.23;4.43;;;;;;;-147.53;100.00;57128.34;10265879;28;20070;-79
2022/09/06 09:51:19;;;;;;;7.95;4.57;;;;;;;-147.53;100.00;57128.34;10260780;28;20046;-78
2022/09/06 09:56:51;;;;;;;8.40;4.50;;;;;;;-147.53;100.00;57128.34;10243830;28;20058;-79
2022/09/06 10:01:56;;;;;;;10.05;4.32;;;;;;;-147.53;100.00;57128.34;10261457;28;20047;-79
2022/09/06 10:07:10;;;;;;;8.57;4.53;;;;;;;-147.53;100.00;57128.34;10247330;28;20054;-78
2022/09/06 10:12:27;;;;;;;9.25;4.60;;;;;;;-147.53;100.00;57128.34;10260650;28;20490;-78
2022/09/06 10:17:34;;;;;;;7.38;3.83;;;;;;;-147.53;100.00;57128.34;10246975;28;20062;-77
2022/09/06 10:23:03;;;;;;;7.15;4.05;;;;;;;-147.53;100.00;57128.34;10252712;28;20077;-78
2022/09/06 10:28:18;;;;;;;8.52;4.15;;;;;;;-147.53;100.00;57128.34;10260615;28;20426;-77
2022/09/06 10:33:44;;;;;;;9.52;4.05;;;;;;;-147.53;100.00;57128.34;10238204;28;20424;-77
2022/09/06 10:38:58;;;;;;;10.65;4.00;;;;;;;-147.53;100.00;57128.34;10269173;28;20146;-77
2022/09/06 10:44:36;;;;;;;11.35;4.45;;;;;;;-147.53;100.00;57128.34;10249819;28;20043;-76
2022/09/06 10:49:44;;;;;;;6.97;3.80;;;;;;;-147.53;100.00;57128.34;10304303;28;20130;-78
2022/09/06 10:54:46;;;;;;;10.02;4.38;;;;;;;-147.53;100.00;57128.34;10270018;28;20050;-77
2022/09/06 10:59:54;;;;;;;9.85;3.85;;;;;;;-147.53;100.00;57128.34;10276702;28;20038;-78
2022/09/06 11:05:00;;;;;;;9.30;4.00;;;;;;;-147.53;100.00;57128.34;10269417;28;20522;-77
2022/09/06 11:10:36;;;;;;;8.43;3.47;;;;;;;-147.53;100.00;57128.34;10259784;28;20038;-79
2022/09/06 11:16:16;;;;;;;12.20;4.45;;;;;;;-147.53;100.00;57128.34;10263921;28;20058;-77
2022/09/06 11:21:36;;;;;;;12.55;4.50;;;;;;;-147.53;100.00;57128.34;10286948;28;20273;-78
2022/09/06 11:27:08;;;;;;;8.73;4.97;;;;;;;-147.53;100.00;57128.34;10252854;28;20498;-77
2022/09/06 11:32:32;;;;;;;9.63;4.05;;;;;;;-147.53;100.00;57128.34;10239814;28;20044;-77
2022/09/06 11:37:38;;;;;;;8.85;4.32;;;;;;;-147.53;100.00;57128.34;10231370;28;20056;-78
2022/09/06 11:42:42;;;;;;;8.98;4.45;;;;;;;-147.53;100.00;57128.34;10222275;28;20055;-77
2022/09/06 11:47:47;;;;;;;9.90;5.10;;;;;;;-147.53;100.00;57128.34;10205182;28;20035;-77
2022/09/06 11:52:54;;;;;;;9.52;4.45;;;;;;;-147.53;100.00;57128.34;10220590;28;20063;-76
2022/09/06 11:57:59;;;;;;;14.55;5.07;;;;;;;-147.53;100.00;57128.34;10245250;28;20085;-77
2022/09/06 12:03:00;;;;;;;12.27;4.70;;;;;;;-147.53;100.00;57128.34;10240041;28;20059;-78
2022/09/06 12:08:29;;;;;;;9.32;4.95;;;;;;;-147.53;100.00;57128.34;10235740;28;20050;-78
2022/09/06 12:13:44;;;;;;;7.75;4.63;;;;;;;-147.53;100.00;57128.34;10234931;28;20103;-77
2022/09/06 12:18:45;;;;;;;10.35;5.53;;;;;;;-147.53;100.00;57128.34;10239098;28;20051;-76
2022/09/06 12:23:47;;;;;;;9.52;5.70;;;;;;;-147.53;100.00;57128.34;10239749;28;20047;-76
2022/09/06 12:28:50;;;;;;;10.13;6.03;;;;;;;-147.53;100.00;57128.34;10247880;28;20074;-75
2022/09/06 12:33:53;;;;;;;13.13;6.57;;;;;;;-147.53;100.00;57128.34;10246438;28;20049;-76
2022/09/06 12:39:16;;;;;;;12.10;6.40;;;;;;;-147.53;100.00;57128.34;10239485;28;20138;-77
2022/09/06 12:44:42;;;;;;;10.10;5.90;;;;;;;-147.53;100.00;57128.34;10248799;28;20074;-76
2022/09/06 12:49:43;;;;;;;9.15;5.90;;;;;;;-147.53;100.00;57128.34;10231441;28;20149;-76
2022/09/06 12:54:48;;;;;;;10.73;5.07;;;;;;;-147.53;100.00;57128.34;10237019;28;20040;-76
2022/09/06 12:59:55;;;;;;;15.43;5.97;;;;;;;-147.53;100.00;57128.34;10225942;28;20837;-76
2022/09/06 13:05:05;;;;;;;8.43;5.65;;;;;;;-147.53;100.00;57128.34;10239587;28;20043;-77
2022/09/06 13:10:07;;;;;;;10.80;6.07;;;;;;;-147.53;100.00;57128.34;10233773;28;20054;-75
2022/09/06 13:15:11;;;;;;;10.00;5.65;;;;;;;-147.53;100.00;57128.34;10267558;28;20047;-75
2022/09/06 13:20:22;;;;;;;11.95;5.93;;;;;;;-147.53;100.00;57128.34;10272795;28;20279;-76
2022/09/06 13:25:25;;;;;;;10.02;5.97;;;;;;;-147.53;100.00;57128.34;10267061;28;20178;-76
2022/09/06 13:30:40;;;;;;;12.55;6.03;;;;;;;-147.53;100.00;57128.34;10277093;28;20051;-76
2022/09/06 13:35:43;;;;;;;15.23;6.18;;;;;;;-147.53;100.00;57128.34;10264367;28;20042;-76
2022/09/06 13:40:45;;;;;;;9.90;6.20;;;;;;;-147.53;100.00;57128.34;10279052;28;20304;-76
2022/09/06 13:46:09;;;;;;;9.50;5.20;;;;;;;-147.53;100.00;57128.34;10280062;28;20050;-76
2022/09/06 13:51:11;;;;;;;10.68;4.50;;;;;;;-147.53;100.00;57128.34;10286522;28;20210;-76
2022/09/06 13:56:14;;;;;;;14.90;5.75;;;;;;;-147.53;100.00;57128.34;10284240;28;20035;-76
2022/09/06 14:01:15;;;;;;;9.73;5.28;;;;;;;-147.53;100.00;57128.34;10279613;28;20057;-76
2022/09/06 14:06:17;;;;;;;11.77;4.85;;;;;;;-147.53;100.00;57128.34;10285760;28;20047;-76
2022/09/06 14:11:19;;;;;;;9.55;5.25;;;;;;;-147.53;100.00;57128.34;10278706;28;20047;-75
2022/09/06 14:16:21;;;;;;;10.35;5.40;;;;;;;-147.53;100.00;57128.34;10276677;28;20039;-76
2022/09/06 14:21:23;;;;;;;12.15;4.63;;;;;;;-147.53;100.00;57128.34;10285203;28;20496;-75
2022/09/06 14:26:24;;;;;;;10.80;4.70;;;;;;;-147.53;100.00;57128.34;10277549;28;20030;-76
2022/09/06 14:31:27;;;;;;;9.38;5.00;;;;;;;-147.53;100.00;57128.34;10281633;28;20266;-75
2022/09/06 14:36:30;;;;;;;9.02;5.00;;;;;;;-147.53;100.00;57128.34;10276542;28;20066;-76
2022/09/06 14:41:31;;;;;;;12.20;4.97;;;;;;;-147.53;100.00;57128.34;10274061;28;20043;-74
2022/09/06 14:46:33;;;;;;;10.10;4.40;;;;;;;-147.53;100.00;57128.34;10286903;28;20125;-75
2022/09/06 14:51:37;;;;;;;7.22;4.50;;;;;;;-147.53;100.00;57128.34;10281204;28;20045;-75
2022/09/06 14:56:40;;;;;;;9.50;3.83;;;;;;;-147.53;100.00;57128.34;10272514;28;20056;-75
2022/09/06 15:01:42;;;;;;;7.88;3.70;;;;;;;-147.53;100.00;57128.34;10286807;28;20054;-74
2022/09/06 15:06:45;;;;;;;9.63;3.78;;;;;;;-147.53;100.00;57128.34;10288276;28;20772;-74
2022/09/06 15:11:50;;;;;;;10.50;3.83;;;;;;;-147.53;100.00;57128.34;10284094;28;20502;-75
2022/09/06 15:16:56;;;;;;;9.98;4.32;;;;;;;-147.53;100.00;57128.34;10281938;28;20047;-74
2022/09/06 15:21:58;;;;;;;7.50;4.13;;;;;;;-147.53;100.00;57128.34;10282030;28;20127;-74
2022/09/06 15:27:00;;;;;;;7.90;4.35;;;;;;;-147.53;100.00;57128.34;10282137;28;20066;-78
2022/09/06 15:32:01;;;;;;;7.20;4.53;;;;;;;-147.53;100.00;57128.34;10284315;28;20066;-80
2022/09/06 15:37:03;;;;;;;12.30;3.92;;;;;;;-147.53;100.00;57128.34;10298381;28;20066;-82
2022/09/06 15:42:05;;;;;;;12.48;4.25;;;;;;;-147.53;100.00;57128.34;10295683;28;20085;-79
2022/09/06 15:47:07;;;;;;;8.80;4.35;;;;;;;-147.53;100.00;57128.34;10302588;28;20226;-79
2022/09/06 15:52:09;;;;;;;9.68;3.53;;;;;;;-147.53;100.00;57128.34;10296400;28;20066;-80
2022/09/06 15:57:12;;;;;;;8.52;3.55;;;;;;;-147.53;100.00;57128.34;10286762;28;20065;-81
2022/09/06 16:02:14;;;;;;;7.40;3.40;;;;;;;-147.53;100.00;57128.34;10295620;28;20089;-81
2022/09/06 16:07:16;;;;;;;8.07;3.67;;;;;;;-147.53;100.00;57128.34;10293066;28;20113;-81
2022/09/06 16:12:17;;;;;;;7.88;3.63;;;;;;;-147.53;100.00;57128.34;10280024;28;20046;-81
2022/09/06 16:17:21;;;;;;;7.20;3.35;;;;;;;-147.53;100.00;57128.34;10297244;28;20333;-79
2022/09/06 16:22:22;;;;;;;8.23;3.75;;;;;;;-147.53;100.00;57128.34;10289637;28;20061;-80
2022/09/06 16:27:24;;;;;;;11.70;3.25;;;;;;;-147.53;100.00;57128.34;10279958;28;20116;-80
2022/09/06 16:32:26;;;;;;;6.45;3.47;;;;;;;-147.53;100.00;57128.34;10286664;28;20546;-82
2022/09/06 16:37:27;;;;;;;8.57;3.55;;;;;;;-147.53;100.00;57128.34;10279444;28;20426;-75
2022/09/06 16:42:29;;;;;;;7.18;3.33;;;;;;;-147.53;100.00;57128.34;10297014;28;20260;-76
2022/09/06 16:47:30;;;;;;;11.13;3.38;;;;;;;-147.53;100.00;57128.34;10286346;28;20549;-76
2022/09/06 16:52:33;;;;;;;8.63;3.40;;;;;;;-147.53;100.00;57128.34;10279371;28;20417;-75
2022/09/06 16:57:37;;;;;;;12.20;3.80;;;;;;;-147.53;100.00;57128.34;10269454;28;20486;-76
2022/09/06 17:02:39;;;;;;;10.15;3.88;;;;;;;-147.53;100.00;57128.34;10289749;28;20053;-77
2022/09/06 17:07:47;;;;;;;11.60;4.07;;;;;;;-147.53;100.00;57128.34;10273957;28;20043;-77
2022/09/06 17:12:48;;;;;;;7.93;4.00;;;;;;;-147.53;100.00;57128.34;10292662;28;20490;-76
2022/09/06 17:17:50;;;;;;;8.13;3.47;;;;;;;-147.53;100.00;57128.34;10290696;28;20066;-77
2022/09/06 17:22:52;;;;;;;7.70;4.05;;;;;;;-147.53;100.00;57128.34;10284803;28;20054;-77
2022/09/06 17:27:53;;;;;;;9.90;3.67;;;;;;;-147.53;100.00;57128.34;10293780;28;20503;-77
2022/09/06 17:32:55;;;;;;;7.55;3.97;;;;;;;-147.53;100.00;57128.34;10283262;28;20045;-77
2022/09/06 17:37:57;;;;;;;11.90;4.15;;;;;;;-147.53;100.00;57128.34;10297585;28;20494;-76
2022/09/06 17:42:59;;;;;;;9.55;4.05;;;;;;;-147.53;100.00;57128.34;10291165;28;20050;-77
2022/09/06 17:48:01;;;;;;;9.27;4.03;;;;;;;-147.53;100.00;57128.34;10288219;28;20141;-77
2022/09/06 17:53:02;;;;;;;7.88;3.35;;;;;;;-147.53;100.00;57128.34;10268812;28;20108;-76
2022/09/06 17:58:04;;;;;;;7.22;3.28;;;;;;;-147.53;100.00;57128.34;10286885;28;20042;-76
2022/09/06 18:03:07;;;;;;;11.00;3.85;;;;;;;-147.53;100.00;57128.34;10283305;28;20513;-75
2022/09/06 18:08:09;;;;;;;17.98;3.60;;;;;;;-147.53;100.00;57128.34;10279331;28;20425;-74
2022/09/06 18:13:11;;;;;;;10.57;3.80;;;;;;;-147.53;100.00;57128.34;10266958;28;20039;-74
2022/09/06 18:18:13;;;;;;;9.98;4.80;;;;;;;-147.53;100.00;57128.34;10288035;28;20057;-74
2022/09/06 18:23:14;;;;;;;9.35;3.85;;;;;;;-147.53;100.00;57128.34;10273092;28;20046;-75
2022/09/06 18:28:16;;;;;;;9.07;3.40;;;;;;;-147.53;100.00;57128.34;10277331;28;20057;-75
2022/09/06 18:33:17;;;;;;;9.00;4.05;;;;;;;-147.53;100.00;57128.34;10277043;28;20066;-73
2022/09/06 18:38:19;;;;;;;13.38;3.80;;;;;;;-147.53;100.00;57128.34;10275700;28;20051;-74
2022/09/06 18:43:24;;;;;;;8.73;3.80;;;;;;;-147.53;100.00;57128.34;10279565;28;20544;-75
2022/09/06 18:48:26;;;;;;;10.90;4.28;;;;;;;-147.53;100.00;57128.34;10287988;28;20042;-75
2022/09/06 18:53:28;;;;;;;11.07;3.72;;;;;;;-147.53;100.00;57128.34;10282382;28;20039;-74
2022/09/06 18:58:31;;;;;;;7.35;3.95;;;;;;;-147.53;100.00;57128.34;10239875;28;20375;-75
2022/09/06 19:03:33;;;;;;;7.65;3.88;;;;;;;-147.53;100.00;57128.34;10251891;28;20058;-75
2022/09/06 19:08:35;;;;;;;10.38;3.85;;;;;;;-147.53;100.00;57128.34;10283176;28;20051;-75
2022/09/06 19:13:38;;;;;;;10.73;4.18;;;;;;;-147.53;100.00;57128.34;10275770;28;20050;-75
2022/09/06 19:18:40;;;;;;;8.82;3.72;;;;;;;-147.53;100.00;57128.34;10278277;28;20112;-75
2022/09/06 19:23:46;;;;;;;10.55;3.85;;;;;;;-147.53;100.00;57128.34;10267334;28;20049;-74
2022/09/06 19:28:50;;;;;;;10.70;4.18;;;;;;;-147.53;100.00;57128.34;10273296;28;20051;-75
2022/09/06 19:33:53;;;;;;;9.63;4.03;;;;;;;-147.53;100.00;57128.34;10274575;28;20042;-75
2022/09/06 19:38:57;;;;;;;11.38;4.65;;;;;;;-147.53;100.00;57128.34;10271908;28;20049;-75
2022/09/06 19:44:07;;;;;;;8.95;4.38;;;;;;;-147.53;100.00;57128.34;10269626;28;20046;-75
2022/09/06 19:49:08;;;;;;;7.05;4.03;;;;;;;-147.53;100.00;57128.34;10275174;28;20047;-75
2022/09/06 19:54:11;;;;;;;7.70;3.92;;;;;;;-147.53;100.00;57128.34;10276671;28;20046;-75
2022/09/06 19:59:14;;;;;;;7.57;4.32;;;;;;;-147.53;100.00;57128.34;10270987;28;20123;-76
2022/09/06 20:04:15;;;;;;;9.23;4.38;;;;;;;-147.53;100.00;57128.34;10271701;28;20053;-75
2022/09/06 20:09:17;;;;;;;7.82;4.03;;;;;;;-147.53;100.00;57128.34;10274530;28;20134;-75
2022/09/06 20:14:19;;;;;;;15.85;3.95;;;;;;;-147.53;100.00;57128.34;10272816;28;20046;-74
2022/09/06 20:19:21;;;;;;;10.23;4.50;;;;;;;-147.53;100.00;57128.34;10266766;28;20046;-75
2022/09/06 20:24:22;;;;;;;12.85;4.20;;;;;;;-147.53;100.00;57128.34;10268226;28;20521;-75
2022/09/06 20:29:24;;;;;;;7.80;4.00;;;;;;;-147.53;100.00;57128.34;10267318;28;20054;-75
2022/09/06 20:34:25;;;;;;;8.32;4.50;;;;;;;-147.53;100.00;57128.34;10267142;28;20418;-74
2022/09/06 20:39:27;;;;;;;12.27;4.90;;;;;;;-147.53;100.00;57128.34;10274793;28;20057;-75
2022/09/06 20:44:29;;;;;;;8.68;4.43;;;;;;;-147.53;100.00;57128.34;10274914;28;20046;-75
2022/09/06 20:49:31;;;;;;;9.73;4.45;;;;;;;-147.53;100.00;57128.34;10277917;28;20052;-75
2022/09/06 20:54:33;;;;;;;9.20;4.72;;;;;;;-147.53;100.00;57128.34;10276093;28;20039;-75
2022/09/06 20:59:34;;;;;;;12.43;4.50;;;;;;;-147.53;100.00;57128.34;10274748;28;20129;-75
2022/09/06 21:04:36;;;;;;;10.98;4.90;;;;;;;-147.53;100.00;57128.34;10278568;28;20142;-75
2022/09/06 21:09:38;;;;;;;8.38;4.60;;;;;;;-147.53;100.00;57128.34;10267653;28;20794;-74
2022/09/06 21:14:39;;;;;;;7.95;4.65;;;;;;;-147.53;100.00;57128.34;10280894;28;20045;-74
2022/09/06 21:19:41;;;;;;;9.18;4.32;;;;;;;-147.53;100.00;57128.34;10270167;28;20317;-75
2022/09/06 21:24:43;;;;;;;9.52;4.70;;;;;;;-147.53;100.00;57128.34;10276486;28;20409;-75
2022/09/06 21:29:44;;;;;;;15.48;4.80;;;;;;;-147.53;100.00;57128.34;10276479;28;20034;-75
2022/09/06 21:34:46;;;;;;;13.80;5.10;;;;;;;-147.53;100.00;57128.34;10264645;28;20039;-76
2022/09/06 21:39:48;;;;;;;14.02;5.18;;;;;;;-147.53;100.00;57128.34;10275348;28;20320;-74
2022/09/06 21:44:50;;;;;;;13.32;5.10;;;;;;;-147.53;100.00;57128.34;10266755;28;20035;-75
2022/09/06 21:49:52;;;;;;;8.98;5.00;;;;;;;-147.53;100.00;57128.34;10270748;28;20061;-75
2022/09/06 21:54:53;;;;;;;13.50;5.63;;;;;;;-147.53;100.00;57128.34;10273145;28;20057;-75
2022/09/06 21:59:55;;;;;;;11.73;5.13;;;;;;;-147.53;100.00;57128.34;10265705;28;20499;-75
2022/09/06 22:04:57;;;;;;;10.55;5.32;;;;;;;-147.53;100.00;57128.34;10288007;28;20048;-75
2022/09/06 22:09:58;;;;;;;10.13;5.43;;;;;;;-147.53;100.00;57128.34;10280343;28;20054;-74
2022/09/06 22:15:00;;;;;;;10.23;5.75;;;;;;;-147.53;100.00;57128.34;10278832;28;20046;-74
2022/09/06 22:20:06;;;;;;;8.75;5.07;;;;;;;-147.53;100.00;57128.34;10281695;28;20046;-75
2022/09/06 22:25:08;;;;;;;11.43;5.05;;;;;;;-147.53;100.00;57128.34;10280993;28;20054;-75
2022/09/06 22:30:10;;;;;;;11.25;5.95;;;;;;;-147.53;100.00;57128.34;10285653;28;20047;-75
2022/09/06 22:35:12;;;;;;;9.00;5.13;;;;;;;-147.53;100.00;57128.34;10277948;28;20043;-75
2022/09/06 22:40:13;;;;;;;10.55;5.28;;;;;;;-147.53;100.00;57128.34;10275804;28;20476;-75
2022/09/06 22:45:15;;;;;;;8.95;4.75;;;;;;;-147.53;100.00;57128.34;10282685;28;20557;-74
2022/09/06 22:50:16;;;;;;;16.67;4.93;;;;;;;-147.53;100.00;57128.34;10281751;28;20084;-75
2022/09/06 22:55:18;;;;;;;10.57;5.20;;;;;;;-147.53;100.00;57128.34;10281691;28;20646;-74